createdAt,value
2023-09-16T00:01:11.195Z,15.60
2023-09-16T00:03:38.242Z,15.60
2023-09-16T00:06:05.834Z,15.60
2023-09-16T00:08:35.416Z,15.60
2023-09-16T00:11:02.126Z,15.70
2023-09-16T00:13:28.885Z,15.70
2023-09-16T00:15:55.856Z,15.70
2023-09-16T00:18:22.776Z,15.70
2023-09-16T00:20:53.678Z,15.70
2023-09-16T00:23:20.420Z,15.70
2023-09-16T00:25:47.208Z,15.70
2023-09-16T00:28:14.049Z,15.70
2023-09-16T00:30:40.809Z,15.70
2023-09-16T00:33:07.657Z,15.60
2023-09-16T00:35:34.469Z,15.60
2023-09-16T00:38:01.255Z,15.50
2023-09-16T00:40:27.979Z,15.50
2023-09-16T00:42:54.898Z,15.50
2023-09-16T00:45:21.613Z,15.40
2023-09-16T00:47:48.531Z,15.40
2023-09-16T00:50:15.904Z,15.40
2023-09-16T00:52:42.641Z,15.40
2023-09-16T00:55:10.244Z,15.40
2023-09-16T00:57:37.095Z,15.40
2023-09-16T01:00:08.923Z,15.40
2023-09-16T01:02:35.986Z,15.40
2023-09-16T01:05:06.028Z,15.40
2023-09-16T01:07:32.896Z,15.40
2023-09-16T01:09:59.617Z,15.30
2023-09-16T01:12:26.443Z,15.30
2023-09-16T01:14:53.215Z,15.30
2023-09-16T01:17:19.998Z,15.30
2023-09-16T01:19:46.788Z,15.30
2023-09-16T01:22:14.079Z,15.30
2023-09-16T01:24:41.851Z,15.20
2023-09-16T01:27:08.926Z,15.20
2023-09-16T01:29:35.606Z,15.20
2023-09-16T01:32:03.437Z,15.20
2023-09-16T01:34:30.762Z,15.20
2023-09-16T01:36:57.633Z,15.20
2023-09-16T01:39:25.459Z,15.10
2023-09-16T01:41:52.208Z,15.10
2023-09-16T01:44:18.961Z,15.10
2023-09-16T01:46:45.949Z,15.10
2023-09-16T01:49:12.716Z,15.10
2023-09-16T01:51:39.597Z,15.10
2023-09-16T01:54:07.050Z,15.10
2023-09-16T01:56:33.920Z,15.00
2023-09-16T01:59:00.702Z,15.00
2023-09-16T02:01:27.499Z,15.00
2023-09-16T02:03:56.920Z,15.00
2023-09-16T02:06:24.181Z,15.00
2023-09-16T02:08:51.801Z,15.00
2023-09-16T02:11:18.574Z,15.00
2023-09-16T02:13:45.477Z,15.00
2023-09-16T02:16:12.421Z,14.90
2023-09-16T02:18:39.700Z,14.90
2023-09-16T02:21:06.643Z,14.90
2023-09-16T02:23:33.402Z,14.90
2023-09-16T02:26:00.215Z,14.90
2023-09-16T02:28:26.979Z,14.80
2023-09-16T02:30:53.875Z,14.80
2023-09-16T02:33:21.471Z,14.80
2023-09-16T02:35:48.249Z,14.70
2023-09-16T02:38:15.307Z,14.70
2023-09-16T02:40:42.267Z,14.70
2023-09-16T02:43:10.444Z,14.70
2023-09-16T02:45:37.358Z,14.70
2023-09-16T02:48:04.222Z,14.70
2023-09-16T02:50:31.146Z,14.70
2023-09-16T02:52:57.909Z,14.70
2023-09-16T02:55:24.754Z,14.70
2023-09-16T02:57:51.478Z,14.70
2023-09-16T03:00:18.266Z,14.60
2023-09-16T03:02:46.327Z,14.60
2023-09-16T03:05:13.178Z,14.60
2023-09-16T03:07:40.289Z,14.60
2023-09-16T03:10:07.133Z,14.50
2023-09-16T03:12:34.994Z,14.50
2023-09-16T03:15:02.072Z,14.50
2023-09-16T03:17:28.888Z,14.50
2023-09-16T03:19:56.167Z,14.50
2023-09-16T03:22:22.990Z,14.50
2023-09-16T03:24:50.044Z,14.50
2023-09-16T03:27:16.901Z,14.50
2023-09-16T03:29:43.782Z,14.50
2023-09-16T03:32:10.664Z,14.50
2023-09-16T03:34:37.546Z,14.50
2023-09-16T03:37:05.009Z,14.50
2023-09-16T03:39:31.898Z,14.50
2023-09-16T03:41:59.553Z,14.50
2023-09-16T03:44:26.346Z,14.50
2023-09-16T03:46:54.070Z,14.50
2023-09-16T03:49:20.971Z,14.50
2023-09-16T03:51:47.701Z,14.40
2023-09-16T03:54:14.586Z,14.40
2023-09-16T03:56:43.181Z,14.40
2023-09-16T03:59:12.269Z,14.40
2023-09-16T04:01:39.172Z,14.40
2023-09-16T04:04:07.216Z,14.40
2023-09-16T04:06:34.082Z,14.40
2023-09-16T04:09:01.659Z,14.40
2023-09-16T04:11:29.191Z,14.40
2023-09-16T04:13:57.138Z,14.30
2023-09-16T04:16:26.711Z,14.30
2023-09-16T04:18:54.746Z,14.30
2023-09-16T04:21:21.623Z,14.30
2023-09-16T04:23:48.616Z,14.30
2023-09-16T04:26:17.253Z,14.30
2023-09-16T04:28:47.034Z,14.20
2023-09-16T04:31:14.012Z,14.20
2023-09-16T04:33:41.988Z,14.20
2023-09-16T04:36:10.290Z,14.20
2023-09-16T04:38:38.315Z,14.20
2023-09-16T04:41:06.576Z,14.30
2023-09-16T04:43:33.555Z,14.30
2023-09-16T04:46:02.029Z,14.30
2023-09-16T04:48:39.958Z,14.20
2023-09-16T04:51:07.147Z,14.20
2023-09-16T04:53:34.429Z,14.20
2023-09-16T04:56:01.665Z,14.20
2023-09-16T04:58:30.524Z,14.20
2023-09-16T05:00:58.809Z,14.20
2023-09-16T05:03:25.658Z,14.20
2023-09-16T05:05:52.649Z,14.10
2023-09-16T05:08:20.072Z,14.10
2023-09-16T05:10:47.190Z,14.10
2023-09-16T05:13:13.986Z,14.10
2023-09-16T05:15:41.022Z,14.10
2023-09-16T05:18:08.175Z,14.10
2023-09-16T05:20:35.386Z,14.10
2023-09-16T05:23:02.925Z,14.00
2023-09-16T05:25:29.775Z,14.10
2023-09-16T05:27:56.560Z,14.00
2023-09-16T05:30:23.370Z,14.10
2023-09-16T05:32:50.580Z,14.10
2023-09-16T05:35:17.864Z,14.10
2023-09-16T05:37:45.123Z,14.10
2023-09-16T05:40:12.951Z,14.10
2023-09-16T05:42:39.799Z,14.10
2023-09-16T05:45:06.794Z,14.10
2023-09-16T05:47:33.887Z,14.10
2023-09-16T05:50:01.194Z,14.10
2023-09-16T05:52:29.146Z,14.10
2023-09-16T05:54:55.988Z,14.10
2023-09-16T05:57:22.977Z,14.10
2023-09-16T05:59:50.248Z,14.10
2023-09-16T06:02:18.563Z,14.10
2023-09-16T06:04:45.323Z,14.10
2023-09-16T06:07:12.205Z,14.10
2023-09-16T06:09:38.981Z,14.10
2023-09-16T06:12:05.855Z,14.10
2023-09-16T06:14:32.757Z,14.10
2023-09-16T06:16:59.876Z,14.10
2023-09-16T06:19:26.809Z,14.10
2023-09-16T06:21:53.595Z,14.20
2023-09-16T06:24:22.512Z,14.20
2023-09-16T06:26:49.975Z,14.20
2023-09-16T06:29:16.758Z,14.20
2023-09-16T06:31:43.634Z,14.30
2023-09-16T06:34:10.566Z,14.30
2023-09-16T06:36:40.349Z,14.40
2023-09-16T06:39:08.969Z,14.40
2023-09-16T06:41:35.752Z,14.40
2023-09-16T06:44:11.890Z,14.50
2023-09-16T06:46:41.918Z,14.50
2023-09-16T06:49:09.001Z,14.50
2023-09-16T06:51:35.781Z,14.50
2023-09-16T06:54:02.501Z,14.60
2023-09-16T06:56:30.837Z,14.60
2023-09-16T06:58:58.144Z,14.60
2023-09-16T07:01:24.971Z,14.70
2023-09-16T07:03:51.912Z,14.80
2023-09-16T07:06:18.703Z,14.80
2023-09-16T07:08:45.482Z,14.90
2023-09-16T07:11:14.564Z,14.90
2023-09-16T07:13:41.328Z,15.00
2023-09-16T07:16:09.226Z,15.10
2023-09-16T07:18:40.656Z,15.20
2023-09-16T07:21:08.195Z,15.20
2023-09-16T07:23:35.047Z,15.40
2023-09-16T07:26:01.906Z,15.40
2023-09-16T07:28:28.676Z,15.50
2023-09-16T07:30:56.574Z,15.60
2023-09-16T07:33:23.666Z,15.70
2023-09-16T07:35:52.784Z,15.80
2023-09-16T07:38:19.678Z,15.90
2023-09-16T07:40:46.545Z,16.00
2023-09-16T07:43:13.468Z,16.00
2023-09-16T07:45:40.473Z,16.10
2023-09-16T07:48:11.148Z,16.10
2023-09-16T07:50:38.139Z,16.20
2023-09-16T07:53:05.010Z,16.30
2023-09-16T07:55:31.820Z,16.30
2023-09-16T07:57:58.727Z,16.40
2023-09-16T08:00:27.811Z,16.40
2023-09-16T08:02:54.692Z,16.50
2023-09-16T08:05:21.533Z,16.50
2023-09-16T08:07:48.256Z,16.70
2023-09-16T08:10:15.103Z,16.80
2023-09-16T08:12:41.956Z,16.90
2023-09-16T08:15:08.884Z,16.90
2023-09-16T08:17:36.651Z,17.00
2023-09-16T08:20:03.487Z,17.10
2023-09-16T08:22:30.452Z,17.20
2023-09-16T08:24:57.296Z,17.30
2023-09-16T08:27:24.099Z,17.40
2023-09-16T08:29:51.057Z,17.50
2023-09-16T08:32:17.979Z,17.50
2023-09-16T08:34:44.976Z,17.60
2023-09-16T08:37:14.654Z,17.60
2023-09-16T08:39:41.462Z,17.70
2023-09-16T08:42:08.781Z,17.80
2023-09-16T08:44:35.632Z,17.80
2023-09-16T08:47:02.429Z,17.90
2023-09-16T08:49:29.297Z,18.00
2023-09-16T08:51:56.116Z,18.10
2023-09-16T08:54:22.953Z,18.30
2023-09-16T08:56:49.744Z,18.30
2023-09-16T08:59:16.670Z,18.50
2023-09-16T09:01:43.486Z,18.60
2023-09-16T09:04:10.412Z,18.60
2023-09-16T09:06:40.720Z,18.70
2023-09-16T09:09:08.075Z,18.80
2023-09-16T09:11:35.080Z,18.80
2023-09-16T09:14:01.954Z,19.00
2023-09-16T09:16:28.787Z,19.00
2023-09-16T09:18:55.610Z,19.10
2023-09-16T09:21:22.998Z,19.10
2023-09-16T09:23:49.862Z,19.10
2023-09-16T09:26:16.646Z,19.20
2023-09-16T09:28:43.390Z,19.30
2023-09-16T09:31:10.250Z,19.40
2023-09-16T09:33:37.095Z,19.40
2023-09-16T09:36:03.849Z,19.50
2023-09-16T09:38:30.772Z,19.70
2023-09-16T09:40:57.575Z,19.70
2023-09-16T09:43:24.401Z,19.80
2023-09-16T09:45:51.187Z,19.80
2023-09-16T09:48:18.081Z,19.90
2023-09-16T09:50:44.866Z,19.90
2023-09-16T09:53:11.625Z,20.00
2023-09-16T09:55:38.327Z,20.00
2023-09-16T09:58:05.163Z,20.00
2023-09-16T10:00:31.926Z,20.10
2023-09-16T10:03:02.003Z,20.20
2023-09-16T10:05:29.194Z,20.20
2023-09-16T10:07:59.453Z,20.40
2023-09-16T10:10:26.406Z,20.50
2023-09-16T10:12:53.194Z,20.60
2023-09-16T10:15:20.008Z,20.70
2023-09-16T10:17:46.837Z,20.70
2023-09-16T10:20:14.661Z,20.80
2023-09-16T10:22:42.098Z,20.80
2023-09-16T10:25:08.953Z,20.90
2023-09-16T10:27:35.830Z,20.90
2023-09-16T10:30:02.643Z,20.90
2023-09-16T10:32:30.166Z,21.00
2023-09-16T10:34:57.059Z,21.10
2023-09-16T10:37:23.970Z,21.10
2023-09-16T10:39:53.661Z,21.20
2023-09-16T10:42:21.195Z,21.20
2023-09-16T10:44:48.192Z,21.30
2023-09-16T10:47:14.944Z,21.30
2023-09-16T10:49:41.855Z,21.40
2023-09-16T10:52:08.633Z,21.40
2023-09-16T10:54:35.683Z,21.50
2023-09-16T10:57:02.451Z,21.60
2023-09-16T10:59:29.240Z,21.60
2023-09-16T11:01:56.998Z,21.80
2023-09-16T11:04:25.911Z,21.80
2023-09-16T11:06:55.832Z,21.80
2023-09-16T11:09:22.636Z,21.80
2023-09-16T11:11:49.436Z,21.90
2023-09-16T11:14:16.178Z,22.00
2023-09-16T11:16:43.105Z,22.10
2023-09-16T11:19:09.953Z,22.20
2023-09-16T11:21:36.784Z,22.20
2023-09-16T11:24:03.501Z,22.20
2023-09-16T11:26:30.236Z,22.30
2023-09-16T11:28:56.987Z,22.30
2023-09-16T11:31:23.911Z,22.40
2023-09-16T11:33:50.668Z,22.40
2023-09-16T11:36:17.576Z,22.40
2023-09-16T11:38:44.453Z,22.50
2023-09-16T11:41:11.512Z,22.60
2023-09-16T11:43:38.438Z,22.70
2023-09-16T11:46:05.359Z,22.80
2023-09-16T11:48:46.505Z,22.80
2023-09-16T11:51:14.790Z,22.90
2023-09-16T11:53:41.517Z,23.10
2023-09-16T11:56:08.259Z,23.10
2023-09-16T11:58:35.137Z,23.20
2023-09-16T12:01:02.011Z,23.20
2023-09-16T12:03:28.946Z,23.30
2023-09-16T12:05:56.748Z,23.50
2023-09-16T12:08:23.480Z,23.60
2023-09-16T12:10:50.965Z,23.60
2023-09-16T12:13:17.693Z,23.80
2023-09-16T12:15:44.518Z,23.90
2023-09-16T12:18:11.261Z,24.00
2023-09-16T12:20:38.013Z,24.00
2023-09-16T12:23:04.764Z,24.10
2023-09-16T12:25:34.654Z,24.10
2023-09-16T12:28:01.501Z,24.10
2023-09-16T12:30:28.384Z,24.10
2023-09-16T12:32:55.846Z,24.00
2023-09-16T12:35:22.654Z,24.10
2023-09-16T12:37:49.450Z,24.20
2023-09-16T12:40:16.258Z,24.20
2023-09-16T12:42:43.058Z,24.30
2023-09-16T12:45:09.837Z,24.30
2023-09-16T12:47:36.688Z,24.30
2023-09-16T12:50:03.681Z,24.30
2023-09-16T12:52:30.848Z,24.40
2023-09-16T12:54:57.787Z,24.40
2023-09-16T12:57:24.728Z,24.50
2023-09-16T12:59:51.627Z,24.60
2023-09-16T13:02:18.475Z,24.70
2023-09-16T13:04:45.369Z,24.80
2023-09-16T13:07:12.151Z,24.90
2023-09-16T13:09:38.909Z,24.90
2023-09-16T13:12:05.613Z,25.00
2023-09-16T13:14:32.772Z,25.00
2023-09-16T13:16:59.587Z,25.10
2023-09-16T13:19:26.592Z,25.20
2023-09-16T13:21:53.568Z,25.20
2023-09-16T13:24:20.497Z,25.30
2023-09-16T13:26:47.200Z,25.30
2023-09-16T13:29:14.037Z,25.20
2023-09-16T13:31:40.877Z,25.20
2023-09-16T13:34:08.835Z,25.20
2023-09-16T13:36:35.635Z,25.20
2023-09-16T13:39:03.327Z,25.30
2023-09-16T13:41:30.146Z,25.30
2023-09-16T13:43:56.927Z,25.30
2023-09-16T13:46:25.938Z,25.30
2023-09-16T13:48:54.591Z,25.40
2023-09-16T13:51:22.168Z,25.50
2023-09-16T13:53:49.119Z,25.50
2023-09-16T13:56:15.869Z,25.50
2023-09-16T13:58:42.822Z,25.60
2023-09-16T14:01:09.611Z,25.70
2023-09-16T14:03:36.610Z,25.70
2023-09-16T14:06:03.402Z,25.70
2023-09-16T14:08:30.189Z,25.80
2023-09-16T14:10:56.937Z,25.90
2023-09-16T14:13:23.833Z,26.00
2023-09-16T14:15:50.863Z,25.90
2023-09-16T14:18:17.694Z,25.90
2023-09-16T14:20:44.817Z,25.90
2023-09-16T14:23:11.744Z,25.80
2023-09-16T14:25:38.457Z,25.80
2023-09-16T14:28:08.130Z,25.90
2023-09-16T14:30:35.112Z,25.90
2023-09-16T14:33:02.221Z,25.80
2023-09-16T14:35:30.413Z,25.80
2023-09-16T14:37:57.308Z,25.80
2023-09-16T14:40:24.426Z,25.80
2023-09-16T14:42:51.396Z,25.70
2023-09-16T14:45:18.304Z,25.70
2023-09-16T14:47:45.564Z,25.60
2023-09-16T14:50:13.694Z,25.60
2023-09-16T14:52:42.021Z,25.60
2023-09-16T14:55:10.342Z,25.60
2023-09-16T14:57:37.209Z,25.50
2023-09-16T15:00:06.408Z,25.50
2023-09-16T15:02:33.244Z,25.50
2023-09-16T15:05:00.038Z,25.40
2023-09-16T15:07:26.899Z,25.40
2023-09-16T15:09:53.908Z,25.40
2023-09-16T15:12:20.762Z,25.40
2023-09-16T15:14:47.561Z,25.40
2023-09-16T15:17:14.331Z,25.30
2023-09-16T15:19:41.234Z,25.30
2023-09-16T15:22:08.152Z,25.30
2023-09-16T15:24:34.992Z,25.30
2023-09-16T15:27:01.799Z,25.30
2023-09-16T15:29:28.558Z,25.30
2023-09-16T15:32:13.732Z,25.40
2023-09-16T15:34:42.654Z,25.40
2023-09-16T15:37:10.109Z,25.40
2023-09-16T15:39:38.016Z,25.40
2023-09-16T15:42:04.856Z,25.50
2023-09-16T15:44:32.027Z,25.40
2023-09-16T15:46:58.987Z,25.40
2023-09-16T15:49:25.943Z,25.30
2023-09-16T15:51:52.665Z,25.30
2023-09-16T15:54:20.217Z,25.30
2023-09-16T15:56:46.980Z,25.20
2023-09-16T15:59:13.833Z,25.20
2023-09-16T16:01:41.556Z,25.10
2023-09-16T16:04:08.530Z,25.10
2023-09-16T16:06:35.391Z,25.10
2023-09-16T16:09:02.291Z,25.00
2023-09-16T16:11:29.122Z,24.90
2023-09-16T16:13:55.964Z,24.90
2023-09-16T16:16:22.728Z,24.90
2023-09-16T16:18:50.665Z,24.80
2023-09-16T16:21:17.880Z,24.80
2023-09-16T16:23:44.759Z,24.70
2023-09-16T16:26:11.495Z,24.70
2023-09-16T16:28:38.286Z,24.60
2023-09-16T16:31:05.939Z,24.50
2023-09-16T16:33:32.946Z,24.50
2023-09-16T16:36:00.134Z,24.40
2023-09-16T16:38:28.507Z,24.40
2023-09-16T16:40:56.445Z,24.40
2023-09-16T16:43:23.235Z,24.30
2023-09-16T16:45:50.132Z,24.20
2023-09-16T16:48:17.021Z,24.20
2023-09-16T16:50:43.901Z,24.20
2023-09-16T16:53:10.728Z,24.10
2023-09-16T16:55:37.618Z,24.10
2023-09-16T16:58:04.513Z,24.10
2023-09-16T17:00:31.656Z,24.10
2023-09-16T17:02:58.560Z,24.10
2023-09-16T17:05:27.382Z,24.10
2023-09-16T17:07:54.332Z,24.00
2023-09-16T17:10:21.078Z,24.00
2023-09-16T17:12:48.036Z,23.90
2023-09-16T17:15:15.870Z,23.90
2023-09-16T17:17:43.354Z,23.80
2023-09-16T17:20:10.149Z,23.70
2023-09-16T17:22:37.077Z,23.70
2023-09-16T17:25:05.882Z,23.60
2023-09-16T17:27:33.090Z,23.50
2023-09-16T17:30:00.139Z,23.40
2023-09-16T17:32:27.261Z,23.40
2023-09-16T17:34:54.224Z,23.30
2023-09-16T17:37:21.099Z,23.20
2023-09-16T17:39:48.100Z,23.10
2023-09-16T17:42:15.179Z,23.10
2023-09-16T17:44:41.959Z,23.00
2023-09-16T17:47:09.003Z,22.90
2023-09-16T17:49:36.104Z,22.80
2023-09-16T17:52:02.977Z,22.70
2023-09-16T17:54:29.889Z,22.60
2023-09-16T17:56:57.100Z,22.50
2023-09-16T17:59:23.996Z,22.40
2023-09-16T18:01:51.003Z,22.30
2023-09-16T18:04:19.788Z,22.20
2023-09-16T18:06:47.718Z,22.20
2023-09-16T18:09:14.550Z,22.10
2023-09-16T18:11:41.485Z,22.10
2023-09-16T18:14:08.702Z,22.00
2023-09-16T18:16:35.729Z,21.90
2023-09-16T18:19:03.137Z,21.80
2023-09-16T18:21:30.112Z,21.70
2023-09-16T18:23:56.893Z,21.70
2023-09-16T18:26:23.840Z,21.60
2023-09-16T18:28:51.659Z,21.60
2023-09-16T18:31:19.046Z,21.50
2023-09-16T18:33:47.938Z,21.50
2023-09-16T18:36:14.944Z,21.40
2023-09-16T18:38:41.728Z,21.30
2023-09-16T18:41:08.822Z,21.30
2023-09-16T18:43:35.840Z,21.30
2023-09-16T18:46:06.845Z,21.30
2023-09-16T18:48:37.454Z,21.20
2023-09-16T18:51:07.468Z,21.10
2023-09-16T18:53:34.892Z,21.10
2023-09-16T18:56:01.865Z,21.00
2023-09-16T18:58:30.570Z,21.00
2023-09-16T19:00:57.573Z,20.90
2023-09-16T19:03:24.716Z,20.90
2023-09-16T19:05:51.873Z,20.90
2023-09-16T19:08:18.864Z,20.80
2023-09-16T19:10:47.041Z,20.90
2023-09-16T19:13:14.681Z,20.80
2023-09-16T19:15:41.720Z,20.70
2023-09-16T19:18:08.826Z,20.70
2023-09-16T19:20:36.135Z,20.80
2023-09-16T19:23:03.592Z,20.70
2023-09-16T19:25:30.695Z,20.70
2023-09-16T19:27:57.788Z,20.70
2023-09-16T19:30:25.183Z,20.60
2023-09-16T19:32:53.865Z,20.60
2023-09-16T19:35:22.650Z,20.60
2023-09-16T19:37:49.624Z,20.60
2023-09-16T19:40:16.873Z,20.60
2023-09-16T19:42:43.868Z,20.50
2023-09-16T19:45:11.059Z,20.50
2023-09-16T19:47:38.037Z,20.50
2023-09-16T19:50:05.444Z,20.50
2023-09-16T19:52:32.731Z,20.40
2023-09-16T19:54:59.739Z,20.40
2023-09-16T19:57:26.573Z,20.40
2023-09-16T19:59:53.397Z,20.30
2023-09-16T20:02:20.574Z,20.30
2023-09-16T20:04:48.422Z,20.30
2023-09-16T20:07:15.547Z,20.20
2023-09-16T20:09:42.613Z,20.20
2023-09-16T20:12:09.522Z,20.20
2023-09-16T20:14:36.522Z,20.10
2023-09-16T20:17:03.687Z,20.10
2023-09-16T20:19:31.019Z,20.10
2023-09-16T20:21:57.886Z,20.00
2023-09-16T20:24:25.108Z,20.00
2023-09-16T20:26:52.737Z,20.00
2023-09-16T20:29:21.166Z,20.00
2023-09-16T20:31:48.544Z,19.90
2023-09-16T20:34:15.764Z,19.90
2023-09-16T20:36:43.782Z,19.80
2023-09-16T20:39:10.994Z,19.80
2023-09-16T20:41:37.960Z,19.70
2023-09-16T20:44:05.214Z,19.60
2023-09-16T20:46:32.328Z,19.60
2023-09-16T20:48:59.584Z,19.50
2023-09-16T20:51:26.495Z,19.50
2023-09-16T20:53:53.522Z,19.40
2023-09-16T20:56:20.705Z,19.40
2023-09-16T20:58:47.858Z,19.30
2023-09-16T21:01:14.980Z,19.30
2023-09-16T21:03:42.573Z,19.30
2023-09-16T21:06:09.595Z,19.30
2023-09-16T21:08:36.446Z,19.20
2023-09-16T21:11:03.432Z,19.20
2023-09-16T21:13:30.489Z,19.20
2023-09-16T21:15:57.480Z,19.10
2023-09-16T21:18:27.572Z,19.10
2023-09-16T21:20:54.596Z,19.10
2023-09-16T21:23:21.572Z,18.90
2023-09-16T21:25:48.775Z,18.90
2023-09-16T21:28:15.959Z,18.80
2023-09-16T21:30:42.923Z,18.70
2023-09-16T21:33:09.994Z,18.80
2023-09-16T21:35:38.932Z,18.70
2023-09-16T21:38:05.803Z,18.60
2023-09-16T21:40:32.880Z,18.60
2023-09-16T21:42:59.746Z,18.60
2023-09-16T21:45:26.640Z,18.60
2023-09-16T21:47:53.551Z,18.60
2023-09-16T21:50:20.716Z,18.50
2023-09-16T21:52:47.637Z,18.50
2023-09-16T21:55:14.661Z,18.50
2023-09-16T21:57:41.658Z,18.40
2023-09-16T22:00:25.045Z,18.40
2023-09-16T22:02:52.232Z,18.40
2023-09-16T22:05:20.734Z,18.40
2023-09-16T22:07:48.914Z,18.30
2023-09-16T22:10:16.126Z,18.30
2023-09-16T22:12:43.044Z,18.20
2023-09-16T22:15:09.925Z,18.20
2023-09-16T22:17:36.912Z,18.20
2023-09-16T22:20:10.779Z,18.10
2023-09-16T22:22:38.143Z,18.10
2023-09-16T22:25:06.203Z,18.10
2023-09-16T22:27:36.269Z,18.00
2023-09-16T22:30:04.025Z,18.00
2023-09-16T22:32:30.971Z,17.90
2023-09-16T22:34:58.145Z,17.90
2023-09-16T22:37:25.132Z,17.80
2023-09-16T22:39:57.198Z,17.80
2023-09-16T22:42:25.037Z,17.70
2023-09-16T22:45:02.936Z,17.70
2023-09-16T22:47:33.441Z,17.60
2023-09-16T22:50:00.531Z,17.60
2023-09-16T22:52:27.591Z,17.50
2023-09-16T22:54:57.189Z,17.50
2023-09-16T22:57:24.338Z,17.40
2023-09-16T22:59:51.143Z,17.40
2023-09-16T23:02:18.172Z,17.30
2023-09-16T23:04:45.096Z,17.30
2023-09-16T23:07:12.092Z,17.30
2023-09-16T23:09:38.944Z,17.30
2023-09-16T23:12:05.821Z,17.20
2023-09-16T23:14:32.892Z,17.20
2023-09-16T23:16:59.840Z,17.20
2023-09-16T23:19:27.364Z,17.20
2023-09-16T23:21:54.766Z,17.20
2023-09-16T23:24:21.651Z,17.20
2023-09-16T23:26:48.559Z,17.20
2023-09-16T23:29:15.410Z,17.20
2023-09-16T23:31:42.369Z,17.10
2023-09-16T23:34:09.480Z,17.20
2023-09-16T23:36:36.470Z,17.10
2023-09-16T23:39:06.774Z,17.10
2023-09-16T23:41:34.000Z,17.10
2023-09-16T23:44:00.769Z,17.10
2023-09-16T23:46:27.741Z,17.10
2023-09-16T23:48:54.849Z,17.20
2023-09-16T23:51:21.779Z,17.20
2023-09-16T23:53:49.141Z,17.20
2023-09-16T23:56:16.250Z,17.30
2023-09-16T23:58:43.043Z,17.30
